Time;durP1;ratioP1;P1;durP2;ratioP2;P2;SDS_P1;SDS_P2;PMS_P1;PMS_P2;Temp;Humidity;BMP_temperature;BMP_pressure;BME280_temperature;BME280_humidity;BME280_pressure;Samples;Min_cycle;Max_cycle;Signal;HPM_P1;HPM_P2
2021/10/08 00:01:49;;;;;;;58.97;31.73;;;;;;;10.42;90.19;103016.44;5054368;28;20029;-46
2021/10/08 00:04:15;;;;;;;57.97;31.58;;;;;;;10.41;90.16;103006.66;5054523;28;20155;-46
2021/10/08 00:06:40;;;;;;;49.00;28.05;;;;;;;10.42;89.68;103009.22;5054298;28;20140;-46
2021/10/08 00:09:05;;;;;;;56.65;31.83;;;;;;;10.38;89.92;103010.47;5053074;28;20036;-49
2021/10/08 00:11:31;;;;;;;49.42;30.05;;;;;;;10.36;89.84;103007.03;5048784;28;20035;-48
2021/10/08 00:13:57;;;;;;;53.17;29.60;;;;;;;10.34;90.02;103003.63;5033141;28;20033;-47
2021/10/08 00:16:22;;;;;;;54.45;30.48;;;;;;;10.35;89.90;103009.84;5034395;28;20393;-47
2021/10/08 00:18:48;;;;;;;47.05;29.63;;;;;;;10.33;89.87;103012.69;5034288;28;20516;-48
2021/10/08 00:21:14;;;;;;;48.78;29.75;;;;;;;10.31;90.14;103010.09;5049629;28;20476;-49
2021/10/08 00:23:39;;;;;;;51.15;30.05;;;;;;;10.27;89.86;103011.34;5034058;28;20027;-49
2021/10/08 00:26:04;;;;;;;49.13;28.30;;;;;;;10.28;89.75;103010.38;5037585;28;20484;-47
2021/10/08 00:28:30;;;;;;;45.92;27.83;;;;;;;10.29;89.82;103012.09;5053821;28;20064;-48
2021/10/08 00:30:55;;;;;;;49.22;30.17;;;;;;;10.25;89.72;103018.66;5053969;28;20043;-45
2021/10/08 00:33:21;;;;;;;49.80;30.50;;;;;;;10.21;89.81;103009.13;5053797;28;20028;-45
2021/10/08 00:35:46;;;;;;;53.63;30.25;;;;;;;10.18;89.70;103009.38;5053862;28;20032;-48
2021/10/08 00:38:11;;;;;;;47.67;30.08;;;;;;;10.20;89.70;103018.19;5052428;28;20025;-47
2021/10/08 00:40:40;;;;;;;49.55;30.10;;;;;;;10.17;89.79;103018.44;5052361;28;20079;-47
2021/10/08 00:43:05;;;;;;;50.75;30.80;;;;;;;10.14;90.41;103020.50;5053529;28;20025;-47
2021/10/08 00:45:31;;;;;;;54.08;30.90;;;;;;;10.10;90.19;103022.63;5053586;28;20052;-47
2021/10/08 00:48:04;;;;;;;56.33;32.38;;;;;;;10.07;90.44;103020.19;5044529;28;20473;-48
2021/10/08 00:50:29;;;;;;;56.75;31.10;;;;;;;10.01;90.46;103023.38;5033609;28;20044;-47
2021/10/08 00:52:55;;;;;;;56.80;30.48;;;;;;;9.99;90.59;103025.31;5033564;28;20376;-46
2021/10/08 00:55:20;;;;;;;59.58;33.33;;;;;;;9.95;90.80;103024.69;5033732;28;20049;-46
2021/10/08 00:57:46;;;;;;;63.63;32.92;;;;;;;9.94;90.51;103030.22;5032258;28;20030;-46
2021/10/08 01:00:13;;;;;;;57.38;33.08;;;;;;;9.94;90.80;103022.16;5033427;28;20029;-48
2021/10/08 01:02:39;;;;;;;60.50;32.88;;;;;;;9.91;90.70;103027.78;5033346;28;20025;-48
2021/10/08 01:05:04;;;;;;;58.80;33.47;;;;;;;9.90;90.76;103018.88;5031989;28;20060;-48
2021/10/08 01:07:30;;;;;;;58.92;33.00;;;;;;;9.91;90.89;103022.41;5033114;28;20037;-48
2021/10/08 01:09:55;;;;;;;52.78;28.90;;;;;;;9.93;90.65;103021.31;5033133;28;20107;-48
2021/10/08 01:12:21;;;;;;;52.95;29.85;;;;;;;9.95;90.44;103023.84;5033210;28;20056;-45
2021/10/08 01:14:46;;;;;;;55.30;30.88;;;;;;;10.00;90.25;103027.03;5032679;28;20026;-48
2021/10/08 01:17:17;;;;;;;55.63;31.40;;;;;;;10.05;89.62;103031.06;5052925;28;20033;-45
2021/10/08 01:19:43;;;;;;;55.55;30.63;;;;;;;10.03;90.39;103033.03;5052905;28;20025;-48
2021/10/08 01:22:08;;;;;;;70.40;32.13;;;;;;;10.10;90.58;103033.38;5053194;28;20047;-46
2021/10/08 01:24:34;;;;;;;68.30;33.47;;;;;;;10.04;90.26;103033.88;5052871;28;20103;-46
2021/10/08 01:27:03;;;;;;;131.40;34.22;;;;;;;9.93;90.22;103028.53;5052891;28;20028;-47
2021/10/08 01:29:29;;;;;;;83.55;33.05;;;;;;;9.89;90.34;103031.44;5053147;28;20036;-46
2021/10/08 01:31:54;;;;;;;74.43;33.92;;;;;;;9.97;90.84;103038.03;5053091;28;20029;-45
2021/10/08 01:34:20;;;;;;;70.18;32.40;;;;;;;10.06;90.61;103040.00;5063385;28;20119;-45
2021/10/08 01:36:45;;;;;;;73.22;31.48;;;;;;;10.15;90.04;103025.78;5053493;28;20059;-44
2021/10/08 01:39:10;;;;;;;104.60;32.33;;;;;;;10.10;89.10;103034.22;5052657;28;20028;-49
2021/10/08 01:41:36;;;;;;;184.95;33.63;;;;;;;10.09;89.06;103026.28;5052566;28;20029;-45
2021/10/08 01:44:02;;;;;;;75.28;32.08;;;;;;;10.06;89.28;103030.09;5051689;28;20033;-47
2021/10/08 01:46:28;;;;;;;91.40;31.67;;;;;;;10.07;89.08;103034.47;5034668;28;20072;-48
2021/10/08 01:48:53;;;;;;;73.63;31.08;;;;;;;10.06;89.10;103031.94;5032664;28;20496;-45
2021/10/08 01:51:18;;;;;;;89.57;31.92;;;;;;;10.04;89.43;103033.88;5032624;28;20108;-46
2021/10/08 01:53:44;;;;;;;80.78;33.65;;;;;;;10.01;89.50;103035.00;5033482;28;20410;-46
2021/10/08 01:56:09;;;;;;;91.95;33.35;;;;;;;9.93;89.38;103041.97;5032516;28;20040;-47
2021/10/08 01:58:34;;;;;;;72.32;32.58;;;;;;;9.89;89.98;103042.19;5032770;28;20033;-46
2021/10/08 02:01:00;;;;;;;183.05;33.72;;;;;;;9.86;89.85;103039.75;5032707;28;20392;-45
2021/10/08 02:03:25;;;;;;;93.35;34.15;;;;;;;9.82;89.68;103040.13;5032456;28;20465;-48
2021/10/08 02:05:51;;;;;;;101.57;35.03;;;;;;;9.75;89.59;103039.78;5032448;28;20025;-46
2021/10/08 02:08:16;;;;;;;103.97;36.28;;;;;;;9.77;90.33;103035.13;5032325;28;20511;-49
2021/10/08 02:10:41;;;;;;;106.82;36.92;;;;;;;9.77;90.17;103039.63;5032721;28;20028;-49
2021/10/08 02:13:06;;;;;;;88.25;38.15;;;;;;;9.80;89.97;103031.34;5032486;28;20030;-47
2021/10/08 02:15:32;;;;;;;136.25;34.63;;;;;;;9.76;90.02;103041.47;5031215;28;20029;-46
2021/10/08 02:17:57;;;;;;;67.07;33.80;;;;;;;9.77;90.09;103037.81;5032513;28;20041;-48
2021/10/08 02:20:22;;;;;;;74.93;35.90;;;;;;;9.77;90.31;103036.94;5063737;28;20028;-48
2021/10/08 02:22:48;;;;;;;66.25;34.22;;;;;;;9.82;90.67;103038.31;5052241;28;20025;-48
2021/10/08 02:25:14;;;;;;;143.05;33.67;;;;;;;9.89;90.51;103044.88;5051022;28;20029;-47
2021/10/08 02:27:39;;;;;;;100.28;32.85;;;;;;;9.87;90.04;103036.13;5052364;28;20453;-49
2021/10/08 02:30:05;;;;;;;120.30;32.85;;;;;;;9.82;89.77;103043.69;5052027;28;20060;-46
2021/10/08 02:32:31;;;;;;;81.30;32.75;;;;;;;9.79;89.53;103038.53;5052146;28;20100;-49
2021/10/08 02:34:56;;;;;;;78.95;33.63;;;;;;;9.77;89.26;103037.81;5052051;28;20476;-47
2021/10/08 02:37:21;;;;;;;77.45;28.48;;;;;;;9.83;89.23;103034.63;5052107;28;20063;-46
2021/10/08 02:39:47;;;;;;;82.22;32.40;;;;;;;9.78;89.05;103030.59;5051133;28;20495;-49
2021/10/08 02:42:12;;;;;;;85.47;29.90;;;;;;;9.76;88.95;103036.09;5052010;28;20046;-48
2021/10/08 02:44:38;;;;;;;55.55;29.85;;;;;;;9.75;88.77;103042.47;5052019;28;20033;-49
2021/10/08 02:47:03;;;;;;;47.58;27.73;;;;;;;9.71;89.75;103040.97;5055420;28;20131;-47
2021/10/08 02:49:29;;;;;;;60.13;30.02;;;;;;;9.66;89.08;103035.13;5055812;28;20021;-46
2021/10/08 02:51:55;;;;;;;95.03;29.83;;;;;;;9.60;89.13;103035.63;5055605;28;20067;-47
2021/10/08 02:54:20;;;;;;;100.25;30.13;;;;;;;9.54;89.34;103036.97;5056021;28;20045;-46
2021/10/08 02:56:46;;;;;;;269.27;31.02;;;;;;;9.44;89.40;103033.28;5055625;28;20072;-45
2021/10/08 02:59:11;;;;;;;83.30;30.27;;;;;;;9.35;88.99;103037.56;5055650;28;20025;-46
2021/10/08 03:01:36;;;;;;;141.27;30.48;;;;;;;9.25;89.13;103041.94;5055673;28;20025;-48
2021/10/08 03:04:04;;;;;;;106.53;30.10;;;;;;;9.26;89.48;103038.25;5048039;28;20033;-49
2021/10/08 03:06:30;;;;;;;104.32;29.08;;;;;;;9.26;89.70;103038.25;5035493;28;20076;-50
2021/10/08 03:08:56;;;;;;;146.88;29.48;;;;;;;9.12;89.18;103036.66;5043288;28;20045;-47
2021/10/08 03:11:22;;;;;;;107.03;29.67;;;;;;;9.04;89.61;103040.91;5055520;28;20036;-47
2021/10/08 03:13:48;;;;;;;174.40;32.03;;;;;;;8.96;90.20;103042.34;5054061;28;20029;-45
2021/10/08 03:16:13;;;;;;;64.30;30.00;;;;;;;8.99;90.28;103046.63;5055240;28;20025;-48
2021/10/08 03:18:38;;;;;;;179.90;32.65;;;;;;;9.01;90.58;103042.00;5055309;28;20365;-47
2021/10/08 03:21:04;;;;;;;162.15;31.10;;;;;;;8.98;90.17;103044.94;5049281;28;20550;-47
2021/10/08 03:23:30;;;;;;;56.83;28.42;;;;;;;9.02;90.29;103043.69;5035210;28;20080;-47
2021/10/08 03:25:55;;;;;;;60.00;31.17;;;;;;;9.12;90.25;103047.41;5035149;28;20476;-47
2021/10/08 03:28:20;;;;;;;76.95;30.60;;;;;;;9.16;90.26;103056.06;5039697;28;20117;-49
2021/10/08 03:30:46;;;;;;;163.57;28.40;;;;;;;9.13;89.68;103050.94;5040561;28;20041;-48
2021/10/08 03:33:11;;;;;;;127.15;27.80;;;;;;;9.10;89.20;103053.88;5053852;28;20056;-48
2021/10/08 03:35:42;;;;;;;66.03;27.13;;;;;;;9.16;89.33;103058.75;5044018;28;20052;-46
2021/10/08 03:38:11;;;;;;;52.03;24.73;;;;;;;9.16;88.67;103053.38;5051576;28;20037;-49
2021/10/08 03:40:38;;;;;;;41.80;25.10;;;;;;;9.06;88.67;103049.69;5055027;28;20043;-50
2021/10/08 03:43:04;;;;;;;56.28;26.10;;;;;;;8.98;89.16;103048.47;5055020;28;20021;-46
2021/10/08 03:45:43;;;;;;;91.45;26.63;;;;;;;8.98;90.01;103045.78;5053560;28;20042;-47
2021/10/08 03:50:49;;;;;;;60.00;24.05;;;;;;;9.08;88.69;103039.69;5054827;28;20086;-47
2021/10/08 03:53:14;;;;;;;119.65;23.55;;;;;;;8.93;88.05;103042.59;5053342;28;20029;-48
2021/10/08 03:55:41;;;;;;;89.13;25.75;;;;;;;8.82;88.48;103036.31;5054263;28;20048;-48
2021/10/08 03:58:06;;;;;;;222.87;26.60;;;;;;;8.73;89.09;103041.41;5054169;28;20033;-46
2021/10/08 04:00:32;;;;;;;52.78;25.40;;;;;;;8.64;89.09;103042.13;5054516;28;20396;-49
2021/10/08 04:02:57;;;;;;;80.55;25.55;;;;;;;8.70;89.66;103047.00;5053445;28;20448;-47
2021/10/08 04:05:22;;;;;;;40.05;23.30;;;;;;;8.74;89.68;103048.50;5054819;28;20400;-49
2021/10/08 04:07:48;;;;;;;64.22;25.27;;;;;;;8.80;89.48;103047.19;5040399;28;20374;-45
2021/10/08 04:10:13;;;;;;;104.03;24.95;;;;;;;8.85;88.83;103044.16;5034443;28;20049;-50
2021/10/08 04:12:38;;;;;;;72.30;21.83;;;;;;;8.76;88.66;103051.91;5034384;28;20414;-48
2021/10/08 04:15:05;;;;;;;85.80;22.42;;;;;;;8.71;88.67;103048.72;5034347;28;20029;-49
2021/10/08 04:17:30;;;;;;;60.38;22.27;;;;;;;8.70;88.90;103048.84;5034314;28;20033;-48
2021/10/08 04:19:55;;;;;;;73.43;21.77;;;;;;;8.73;89.40;103045.94;5034201;28;20021;-49
2021/10/08 04:22:21;;;;;;;48.40;24.85;;;;;;;8.66;88.95;103052.72;5034446;28;20029;-45
2021/10/08 04:24:46;;;;;;;55.55;23.42;;;;;;;8.65;89.76;103048.34;5034343;28;20493;-46
2021/10/08 04:27:11;;;;;;;49.45;22.95;;;;;;;8.71;89.32;103055.91;5041961;28;20110;-47
2021/10/08 04:29:36;;;;;;;41.67;23.08;;;;;;;8.69;89.48;103052.47;5038458;28;20457;-47
2021/10/08 04:32:02;;;;;;;61.28;25.60;;;;;;;8.71;89.58;103064.81;5044668;28;20437;-47
2021/10/08 04:34:27;;;;;;;54.17;25.42;;;;;;;8.74;89.99;103059.25;5065653;28;20028;-47
2021/10/08 04:36:53;;;;;;;46.50;22.67;;;;;;;8.75;89.51;103060.94;5036751;28;20033;-46
2021/10/08 04:39:18;;;;;;;186.85;24.13;;;;;;;8.64;88.51;103062.75;5033967;28;20455;-49
2021/10/08 04:41:43;;;;;;;151.60;26.38;;;;;;;8.62;89.43;103065.53;5033821;28;20023;-47
2021/10/08 04:44:09;;;;;;;55.22;26.52;;;;;;;8.62;89.37;103064.69;5033578;28;20082;-47
2021/10/08 04:46:34;;;;;;;77.45;25.55;;;;;;;8.56;89.66;103060.63;5033472;28;20049;-47
2021/10/08 04:49:00;;;;;;;244.00;26.92;;;;;;;8.32;89.61;103068.59;5033783;28;20200;-46
2021/10/08 04:51:25;;;;;;;53.72;27.08;;;;;;;8.35;90.46;103069.25;5033283;28;20369;-47
2021/10/08 04:53:50;;;;;;;157.60;28.17;;;;;;;8.43;90.61;103068.72;5033568;28;20583;-46
2021/10/08 04:56:15;;;;;;;180.98;27.42;;;;;;;8.33;89.82;103067.66;5036661;28;20116;-45
2021/10/08 04:58:41;;;;;;;62.13;25.88;;;;;;;8.40;90.22;103068.06;5041948;28;20104;-46
2021/10/08 05:01:06;;;;;;;71.07;25.58;;;;;;;8.41;90.68;103062.59;5033189;28;20388;-47
2021/10/08 05:03:31;;;;;;;65.13;26.45;;;;;;;8.41;90.44;103067.97;5043707;28;20392;-47
2021/10/08 05:05:57;;;;;;;110.03;27.33;;;;;;;8.40;90.62;103073.44;5032449;28;20112;-45
2021/10/08 05:08:22;;;;;;;146.93;27.25;;;;;;;8.32;90.57;103069.47;5031123;28;20392;-47
2021/10/08 05:10:48;;;;;;;236.02;27.15;;;;;;;8.29;91.05;103067.03;5033015;28;20475;-46
2021/10/08 05:13:13;;;;;;;40.55;25.60;;;;;;;8.29;91.07;103069.72;5033085;28;20040;-45
2021/10/08 05:15:39;;;;;;;63.70;25.55;;;;;;;8.39;91.40;103069.03;5032937;28;20019;-45
2021/10/08 05:18:05;;;;;;;112.93;26.27;;;;;;;8.34;90.91;103077.41;5033039;28;20368;-47
2021/10/08 05:20:30;;;;;;;107.78;26.58;;;;;;;8.40;91.08;103077.00;5044836;28;20056;-47
2021/10/08 05:22:56;;;;;;;191.48;24.30;;;;;;;8.38;90.05;103073.53;5060891;28;20495;-48
2021/10/08 05:25:21;;;;;;;148.57;23.52;;;;;;;8.36;88.99;103078.16;5052455;28;20017;-45
2021/10/08 05:27:46;;;;;;;45.35;24.88;;;;;;;8.35;89.89;103071.09;5052567;28;20027;-48
2021/10/08 05:30:12;;;;;;;66.43;26.17;;;;;;;8.38;90.80;103078.06;5052334;28;20525;-48
2021/10/08 05:32:38;;;;;;;71.95;25.83;;;;;;;8.42;91.12;103077.72;5052249;28;20507;-46
2021/10/08 05:35:05;;;;;;;43.63;25.88;;;;;;;8.45;90.92;103080.22;5052397;28;20037;-49
2021/10/08 05:37:30;;;;;;;39.08;24.95;;;;;;;8.49;90.92;103075.47;5051744;28;20430;-46
2021/10/08 05:39:55;;;;;;;37.60;23.92;;;;;;;8.53;89.98;103076.94;5052300;28;20037;-47
2021/10/08 05:42:21;;;;;;;115.38;23.83;;;;;;;8.59;89.01;103070.28;5052336;28;20050;-45
2021/10/08 05:44:46;;;;;;;38.38;21.55;;;;;;;8.60;89.44;103071.97;5052181;28;20365;-46
2021/10/08 05:47:11;;;;;;;50.15;21.83;;;;;;;8.65;88.45;103077.88;5052368;28;20380;-45
2021/10/08 05:49:37;;;;;;;40.38;21.77;;;;;;;8.63;88.43;103074.44;5051850;28;20163;-45
2021/10/08 05:52:02;;;;;;;82.63;25.00;;;;;;;8.55;88.69;103078.53;5035781;28;20143;-45
2021/10/08 05:54:28;;;;;;;132.18;25.58;;;;;;;8.49;88.81;103084.38;5031788;28;20075;-45
2021/10/08 05:56:53;;;;;;;194.45;26.25;;;;;;;8.52;88.57;103084.13;5031802;28;20116;-45
2021/10/08 05:59:18;;;;;;;131.25;26.27;;;;;;;8.49;88.84;103084.38;5032051;28;20036;-45
2021/10/08 06:01:43;;;;;;;69.90;25.27;;;;;;;8.43;88.84;103081.28;5031487;28;20053;-47
2021/10/08 06:04:09;;;;;;;358.05;25.85;;;;;;;8.23;88.93;103086.25;5031625;28;20037;-48
2021/10/08 06:06:34;;;;;;;106.70;23.15;;;;;;;8.23;89.36;103090.75;5031436;28;20029;-47
2021/10/08 06:09:01;;;;;;;32.95;21.00;;;;;;;8.26;89.39;103098.56;5037995;28;20034;-46
2021/10/08 06:11:28;;;;;;;30.45;19.45;;;;;;;8.29;88.76;103101.91;5045872;28;20082;-47
2021/10/08 06:13:53;;;;;;;40.50;20.25;;;;;;;8.22;88.84;103094.41;5032737;28;20033;-47
2021/10/08 06:16:19;;;;;;;87.72;23.55;;;;;;;8.25;89.27;103099.56;5044473;28;20048;-49
2021/10/08 06:18:44;;;;;;;53.58;20.30;;;;;;;8.25;89.07;103100.41;5050992;28;20055;-47
2021/10/08 06:21:09;;;;;;;137.27;20.88;;;;;;;8.24;88.63;103103.19;5056147;28;20021;-45
2021/10/08 06:23:35;;;;;;;176.13;21.67;;;;;;;8.12;88.68;103100.44;5054472;28;20150;-46
2021/10/08 06:26:00;;;;;;;179.15;22.38;;;;;;;8.11;89.21;103104.09;5055230;28;20512;-45
2021/10/08 06:28:26;;;;;;;32.42;18.70;;;;;;;8.16;89.52;103105.56;5055186;28;20104;-45
2021/10/08 06:30:51;;;;;;;49.15;19.48;;;;;;;8.15;88.68;103104.72;5052105;28;20475;-46
2021/10/08 06:33:17;;;;;;;33.40;17.67;;;;;;;8.30;88.49;103102.75;5055780;28;20383;-47
2021/10/08 06:35:42;;;;;;;49.90;18.08;;;;;;;8.38;88.11;103105.75;5055509;28;20150;-44
2021/10/08 06:38:10;;;;;;;27.63;17.75;;;;;;;8.40;88.32;103109.22;5055212;28;20135;-45
2021/10/08 06:40:36;;;;;;;34.35;16.90;;;;;;;8.39;88.13;103115.53;5055062;28;20029;-46
2021/10/08 06:43:01;;;;;;;41.67;16.42;;;;;;;8.37;88.46;103125.47;5048457;28;20045;-47
2021/10/08 06:45:28;;;;;;;35.08;18.42;;;;;;;8.34;88.03;103121.19;5039116;28;20026;-45
2021/10/08 06:47:53;;;;;;;28.70;18.92;;;;;;;8.36;89.06;103113.88;5044492;28;20052;-47
2021/10/08 06:50:19;;;;;;;76.47;18.50;;;;;;;8.37;88.93;103120.09;5035929;28;20029;-46
2021/10/08 06:52:44;;;;;;;49.08;16.83;;;;;;;8.39;88.51;103120.88;5048221;28;20507;-46
2021/10/08 06:55:10;;;;;;;33.10;18.48;;;;;;;8.42;88.60;103126.03;5035656;28;20488;-47
2021/10/08 06:57:35;;;;;;;31.45;19.40;;;;;;;8.43;88.76;103127.75;5038349;28;20406;-46
2021/10/08 07:00:00;;;;;;;176.27;21.40;;;;;;;8.50;88.54;103134.38;5036103;28;20395;-48
2021/10/08 07:02:26;;;;;;;61.95;18.52;;;;;;;8.52;88.27;103134.28;5034399;28;20399;-47
2021/10/08 07:04:51;;;;;;;86.63;19.50;;;;;;;8.57;88.13;103143.69;5052196;28;20072;-49
2021/10/08 07:07:17;;;;;;;99.53;18.60;;;;;;;8.53;87.84;103142.22;5053424;28;20025;-46
2021/10/08 07:09:43;;;;;;;43.60;18.38;;;;;;;8.62;87.94;103145.19;5041545;28;20033;-46
2021/10/08 07:12:08;;;;;;;55.75;19.00;;;;;;;8.70;87.76;103145.50;5039985;28;20029;-47
2021/10/08 07:14:34;;;;;;;78.65;19.10;;;;;;;8.68;87.46;103147.44;5054815;28;20044;-47
2021/10/08 07:16:59;;;;;;;45.78;19.83;;;;;;;8.77;87.61;103146.75;5055118;28;20407;-46
2021/10/08 07:19:25;;;;;;;60.85;19.48;;;;;;;8.85;87.22;103147.03;5054896;28;20402;-46
2021/10/08 07:21:51;;;;;;;133.52;18.13;;;;;;;8.85;86.92;103146.19;5038823;28;20038;-49
2021/10/08 07:24:17;;;;;;;33.83;18.73;;;;;;;8.90;87.12;103149.38;5036693;28;20052;-46
2021/10/08 07:26:42;;;;;;;36.15;20.38;;;;;;;8.94;87.61;103140.97;5054536;28;20029;-47
2021/10/08 07:29:07;;;;;;;34.45;19.73;;;;;;;8.99;87.96;103149.53;5042459;28;20383;-46
2021/10/08 07:31:33;;;;;;;49.33;17.77;;;;;;;9.23;87.49;103154.03;5033837;28;20112;-46
2021/10/08 07:33:58;;;;;;;29.80;17.67;;;;;;;9.29;86.66;103155.41;5034611;28;20029;-46
2021/10/08 07:36:24;;;;;;;74.93;19.40;;;;;;;9.29;87.17;103156.25;5044074;28;20025;-47
2021/10/08 07:38:49;;;;;;;34.28;17.38;;;;;;;9.38;86.75;103144.81;5051562;28;20029;-47
2021/10/08 07:41:15;;;;;;;34.20;19.70;;;;;;;9.47;86.24;103155.84;5046726;28;20057;-46
2021/10/08 07:43:41;;;;;;;50.63;20.65;;;;;;;9.52;87.10;103161.72;5029415;28;20033;-45
2021/10/08 07:46:08;;;;;;;32.63;18.50;;;;;;;9.49;86.55;103156.56;5045495;28;20480;-45
2021/10/08 07:48:33;;;;;;;55.40;21.50;;;;;;;9.55;86.63;103162.31;5054205;28;20105;-44
2021/10/08 07:50:59;;;;;;;39.83;20.25;;;;;;;9.71;86.62;103159.28;5053835;28;20028;-47
2021/10/08 07:53:25;;;;;;;40.30;18.08;;;;;;;9.80;86.30;103163.97;5046988;28;20070;-45
2021/10/08 07:55:50;;;;;;;75.25;19.77;;;;;;;9.73;85.63;103159.19;5045827;28;20025;-47
2021/10/08 07:58:15;;;;;;;32.50;18.90;;;;;;;9.71;86.08;103155.75;5054199;28;20471;-45
2021/10/08 08:00:41;;;;;;;36.88;20.38;;;;;;;9.89;86.32;103165.94;5037576;28;20021;-46
2021/10/08 08:03:06;;;;;;;54.13;20.75;;;;;;;10.11;86.36;103164.25;5044062;28;20040;-45
2021/10/08 08:05:32;;;;;;;102.47;21.15;;;;;;;10.23;84.97;103168.63;5023315;28;20033;-45
2021/10/08 08:07:57;;;;;;;35.47;19.75;;;;;;;10.28;84.67;103171.00;5044951;28;20502;-45
2021/10/08 08:10:22;;;;;;;41.13;19.02;;;;;;;10.44;83.68;103166.09;5035750;28;20025;-49
2021/10/08 08:12:48;;;;;;;25.65;15.82;;;;;;;10.49;83.77;103163.88;5033738;28;20040;-47
2021/10/08 08:15:14;;;;;;;64.55;18.00;;;;;;;10.47;82.33;103162.28;5019754;28;20035;-44
2021/10/08 08:17:40;;;;;;;33.30;16.65;;;;;;;10.57;83.42;103168.66;5040306;28;20024;-48
2021/10/08 08:20:07;;;;;;;36.63;16.40;;;;;;;10.80;83.08;103165.91;5045210;28;20457;-46
2021/10/08 08:22:32;;;;;;;28.17;16.25;;;;;;;10.87;82.71;103172.50;5036164;28;20025;-46
2021/10/08 08:24:58;;;;;;;23.38;16.27;;;;;;;10.90;82.30;103169.53;5039120;28;20040;-46
2021/10/08 08:27:23;;;;;;;34.70;18.50;;;;;;;10.90;82.06;103177.63;5051647;28;20060;-48
2021/10/08 08:29:48;;;;;;;45.70;17.63;;;;;;;10.91;81.18;103168.56;5032116;28;20025;-46
2021/10/08 08:32:15;;;;;;;64.85;17.83;;;;;;;10.73;81.26;103177.19;5057824;28;20043;-48
2021/10/08 08:34:41;;;;;;;27.67;16.23;;;;;;;10.71;81.75;103181.81;5037549;28;20135;-46
2021/10/08 08:37:06;;;;;;;36.78;17.90;;;;;;;10.68;82.40;103179.38;5053047;28;20488;-47
2021/10/08 08:39:33;;;;;;;24.10;16.00;;;;;;;10.81;83.25;103181.09;5052315;28;20061;-47
2021/10/08 08:41:59;;;;;;;41.25;19.80;;;;;;;10.83;82.33;103181.81;5052073;28;20388;-48
2021/10/08 08:44:24;;;;;;;29.15;18.17;;;;;;;10.99;82.21;103184.97;5035755;28;20021;-44
2021/10/08 08:46:49;;;;;;;32.17;18.60;;;;;;;11.10;81.64;103184.91;5037222;28;20050;-46
2021/10/08 08:49:15;;;;;;;38.30;18.08;;;;;;;11.20;81.45;103180.47;5034204;28;20491;-45
2021/10/08 08:51:41;;;;;;;35.20;17.92;;;;;;;11.34;81.47;103186.53;5036999;28;20037;-45
2021/10/08 08:54:07;;;;;;;28.95;16.17;;;;;;;11.68;80.73;103197.16;5050488;28;20029;-46
2021/10/08 08:56:36;;;;;;;53.38;17.50;;;;;;;11.57;78.58;103187.28;5051570;28;20037;-46
2021/10/08 08:59:10;;;;;;;35.45;18.02;;;;;;;11.51;79.52;103194.06;5043739;28;20357;-46
2021/10/08 09:01:56;;;;;;;27.45;17.48;;;;;;;11.70;80.47;103181.69;5037034;28;20395;-48
2021/10/08 09:04:21;;;;;;;36.42;16.77;;;;;;;12.08;77.63;103184.66;5052429;28;20415;-46
2021/10/08 09:06:47;;;;;;;21.70;14.45;;;;;;;12.24;77.49;103183.28;5039788;28;20105;-46
2021/10/08 09:09:19;;;;;;;33.38;15.82;;;;;;;12.34;76.40;103184.19;5036618;28;20033;-47
2021/10/08 09:11:45;;;;;;;22.33;16.08;;;;;;;12.39;77.14;103181.91;5036205;28;20041;-46
2021/10/08 09:14:27;;;;;;;28.90;16.42;;;;;;;12.56;75.44;103185.84;5048225;28;20083;-45
2021/10/08 09:17:19;;;;;;;26.63;16.83;;;;;;;12.77;75.92;103188.44;5070545;28;20074;-49
2021/10/08 09:20:02;;;;;;;25.30;17.08;;;;;;;12.73;76.08;103184.31;5054531;28;20029;-47
2021/10/08 09:22:38;;;;;;;29.40;17.58;;;;;;;12.96;75.46;103184.91;5052323;28;20064;-48
2021/10/08 09:25:20;;;;;;;27.73;17.55;;;;;;;13.29;74.08;103183.66;5052401;28;20395;-47
2021/10/08 09:28:15;;;;;;;33.10;18.95;;;;;;;13.31;74.21;103184.38;5049944;28;20369;-47
2021/10/08 09:30:45;;;;;;;26.80;17.80;;;;;;;13.47;75.08;103180.25;5040189;28;20325;-47
2021/10/08 09:33:13;;;;;;;22.80;16.27;;;;;;;14.00;72.38;103182.41;5052299;28;20025;-47
2021/10/08 09:35:39;;;;;;;24.67;15.48;;;;;;;14.25;71.40;103176.34;5052295;28;20071;-47
2021/10/08 09:38:13;;;;;;;22.52;15.48;;;;;;;14.38;70.99;103178.72;5051269;28;20032;-47
2021/10/08 09:40:47;;;;;;;24.63;17.05;;;;;;;14.49;69.91;103170.38;5057292;28;20128;-46
2021/10/08 09:43:34;;;;;;;25.05;17.45;;;;;;;14.30;71.62;103169.59;5066919;28;20035;-48
2021/10/08 09:46:04;;;;;;;26.05;15.95;;;;;;;14.50;70.16;103171.22;5061469;28;20041;-44
2021/10/08 09:48:43;;;;;;;26.17;16.85;;;;;;;14.48;70.22;103175.94;5051949;28;20036;-47
2021/10/08 09:51:13;;;;;;;25.27;16.67;;;;;;;14.31;70.80;103168.63;5051944;28;20075;-46
2021/10/08 09:53:55;;;;;;;27.70;17.58;;;;;;;13.91;71.89;103170.63;5051544;28;20052;-49
2021/10/08 09:56:32;;;;;;;30.20;18.33;;;;;;;13.77;72.75;103169.25;5042009;28;20017;-47
2021/10/08 09:58:59;;;;;;;31.63;20.05;;;;;;;13.61;72.87;103177.09;5040042;28;20053;-49
2021/10/08 10:01:27;;;;;;;30.42;19.50;;;;;;;13.36;74.22;103174.00;5044736;28;20104;-47
2021/10/08 10:03:53;;;;;;;35.78;20.23;;;;;;;13.35;74.32;103172.31;5043243;28;20025;-47
2021/10/08 10:06:20;;;;;;;32.28;19.92;;;;;;;13.46;74.47;103178.56;5051833;28;20040;-46
2021/10/08 10:08:45;;;;;;;36.70;22.30;;;;;;;13.37;75.16;103183.81;5050954;28;20029;-45
2021/10/08 10:11:11;;;;;;;38.47;21.55;;;;;;;13.61;73.49;103180.66;5040568;28;20026;-45
2021/10/08 10:13:40;;;;;;;34.55;21.13;;;;;;;13.83;73.56;103182.19;5031775;28;20097;-46
2021/10/08 10:16:06;;;;;;;37.38;20.48;;;;;;;13.82;73.36;103185.03;5035125;28;20064;-47
2021/10/08 10:18:31;;;;;;;33.25;20.42;;;;;;;13.94;73.97;103189.28;5033893;28;20072;-46
2021/10/08 10:20:56;;;;;;;32.00;20.10;;;;;;;14.04;73.07;103181.13;5049450;28;20048;-49
2021/10/08 10:23:22;;;;;;;34.67;20.42;;;;;;;14.14;73.27;103186.50;5051804;28;20129;-46
2021/10/08 10:25:49;;;;;;;39.83;23.42;;;;;;;14.11;73.24;103190.34;5051851;28;20124;-48
2021/10/08 10:28:15;;;;;;;34.92;21.63;;;;;;;14.03;72.83;103187.53;5051489;28;20506;-46
2021/10/08 10:30:41;;;;;;;36.08;23.10;;;;;;;13.91;73.31;103183.31;5051418;28;20028;-46
2021/10/08 10:33:08;;;;;;;38.13;24.15;;;;;;;13.76;73.44;103182.91;5042697;28;20041;-49
2021/10/08 10:35:44;;;;;;;38.47;23.60;;;;;;;13.61;74.28;103193.31;5044544;28;20158;-48
2021/10/08 10:38:46;;;;;;;43.58;25.67;;;;;;;13.53;74.90;103188.66;5051341;28;20028;-47
2021/10/08 10:41:12;;;;;;;40.55;24.63;;;;;;;13.48;75.32;103182.84;5051311;28;20364;-47
2021/10/08 10:43:41;;;;;;;39.67;25.30;;;;;;;13.46;74.52;103183.97;5051670;28;20060;-48
2021/10/08 10:52:04;;;;;;;43.20;24.67;;;;;;;13.34;75.85;103173.28;5045729;28;20040;-47
2021/10/08 10:54:42;;;;;;;41.63;25.08;;;;;;;13.45;76.31;103176.84;5051356;28;20033;-48
2021/10/08 10:57:09;;;;;;;46.38;27.15;;;;;;;13.52;76.34;103186.09;5050690;28;20032;-47
2021/10/08 10:59:39;;;;;;;45.55;27.33;;;;;;;13.59;76.11;103177.25;5031457;28;20033;-49
2021/10/08 11:02:06;;;;;;;44.85;27.15;;;;;;;13.62;76.68;103165.28;5044151;28;20056;-46
2021/10/08 11:04:32;;;;;;;;;;;;;;;13.60;76.40;103170.81;5037134;28;20211;-46
2021/10/08 11:07:18;;;;;;;38.95;25.60;;;;;;;13.78;76.14;103179.06;5039920;28;19913;-48
2021/10/08 11:10:07;;;;;;;46.30;26.33;;;;;;;13.85;75.67;103173.94;5053434;28;20017;-47
2021/10/08 11:12:40;;;;;;;44.00;26.67;;;;;;;13.89;74.81;103174.47;5046606;28;20033;-46
2021/10/08 11:15:14;;;;;;;45.88;27.05;;;;;;;13.90;75.18;103176.19;5054994;28;20056;-46
2021/10/08 11:17:59;;;;;;;42.80;26.85;;;;;;;13.86;74.95;103169.38;5035959;28;20030;-47
2021/10/08 11:22:57;;;;;;;49.00;28.15;;;;;;;13.94;76.28;103172.19;5046463;28;20088;-46